Terminal Aerodrome Forecast
Issued by NWS Sterling, VA

Home | Current Version | Previous Version | Text Only | Print | Product List | Glossary On
Versions: 1 2 3 4 5 6 7 8 9 10 11 12 13 14
255
FTUS41 KLWX 102143 AAA
TAFMRB
TAF AMD
KMRB 102143Z 1022/1118 29011KT P6SM SCT040
     FM102300 29005KT P6SM SCT250
     FM110600 VRB03KT P6SM OVC050
     FM111600 15006KT P6SM OVC060=

USA.gov is the U.S. government's official web portal to all federal, state and local government web resources and services.